sensor_id;sensor_type;location;lat;lon;timestamp;P1;durP1;ratioP1;P2;durP2;ratioP2
62679;SDS011;68213;40.528;44.712;2023-07-20T00:00:25;2.20;;;1.70;;
62679;SDS011;68213;40.528;44.712;2023-07-20T00:01:26;3.05;;;1.73;;
62679;SDS011;68213;40.528;44.712;2023-07-20T00:02:27;2.58;;;1.85;;
62679;SDS011;68213;40.528;44.712;2023-07-20T00:03:28;2.42;;;1.85;;
62679;SDS011;68213;40.528;44.712;2023-07-20T00:04:28;5.05;;;1.67;;
62679;SDS011;68213;40.528;44.712;2023-07-20T00:05:29;4.78;;;1.98;;
62679;SDS011;68213;40.528;44.712;2023-07-20T00:06:30;2.92;;;1.75;;
62679;SDS011;68213;40.528;44.712;2023-07-20T00:07:30;2.33;;;1.63;;
62679;SDS011;68213;40.528;44.712;2023-07-20T00:08:31;3.05;;;1.92;;
62679;SDS011;68213;40.528;44.712;2023-07-20T00:09:32;2.83;;;1.90;;
62679;SDS011;68213;40.528;44.712;2023-07-20T00:10:33;3.00;;;1.85;;
62679;SDS011;68213;40.528;44.712;2023-07-20T00:11:35;4.07;;;1.70;;
62679;SDS011;68213;40.528;44.712;2023-07-20T00:12:38;2.17;;;1.70;;
62679;SDS011;68213;40.528;44.712;2023-07-20T00:13:39;4.60;;;1.98;;
62679;SDS011;68213;40.528;44.712;2023-07-20T00:14:40;3.05;;;1.83;;
62679;SDS011;68213;40.528;44.712;2023-07-20T00:15:41;4.10;;;1.85;;
62679;SDS011;68213;40.528;44.712;2023-07-20T00:16:42;2.22;;;1.70;;
62679;SDS011;68213;40.528;44.712;2023-07-20T00:17:43;2.17;;;1.92;;
62679;SDS011;68213;40.528;44.712;2023-07-20T00:18:45;4.28;;;2.03;;
62679;SDS011;68213;40.528;44.712;2023-07-20T00:19:45;4.03;;;1.80;;
62679;SDS011;68213;40.528;44.712;2023-07-20T00:20:48;2.72;;;1.90;;
62679;SDS011;68213;40.528;44.712;2023-07-20T00:21:48;2.33;;;1.90;;
62679;SDS011;68213;40.528;44.712;2023-07-20T00:22:49;2.05;;;1.75;;
62679;SDS011;68213;40.528;44.712;2023-07-20T00:23:52;2.60;;;1.90;;
62679;SDS011;68213;40.528;44.712;2023-07-20T00:24:53;4.25;;;1.75;;
62679;SDS011;68213;40.528;44.712;2023-07-20T00:25:53;3.00;;;1.88;;
62679;SDS011;68213;40.528;44.712;2023-07-20T00:26:54;3.00;;;1.77;;
62679;SDS011;68213;40.528;44.712;2023-07-20T00:27:55;3.20;;;1.80;;
62679;SDS011;68213;40.528;44.712;2023-07-20T00:28:56;2.15;;;1.80;;
62679;SDS011;68213;40.528;44.712;2023-07-20T00:29:56;2.65;;;1.75;;
62679;SDS011;68213;40.528;44.712;2023-07-20T00:30:59;3.03;;;1.70;;
62679;SDS011;68213;40.528;44.712;2023-07-20T00:32:00;7.22;;;2.25;;
62679;SDS011;68213;40.528;44.712;2023-07-20T00:33:01;3.92;;;1.90;;
62679;SDS011;68213;40.528;44.712;2023-07-20T00:34:02;4.05;;;1.83;;
62679;SDS011;68213;40.528;44.712;2023-07-20T00:35:05;4.57;;;1.98;;
62679;SDS011;68213;40.528;44.712;2023-07-20T00:36:06;2.85;;;1.80;;
62679;SDS011;68213;40.528;44.712;2023-07-20T00:37:07;2.88;;;1.83;;
62679;SDS011;68213;40.528;44.712;2023-07-20T00:38:08;2.95;;;1.90;;
62679;SDS011;68213;40.528;44.712;2023-07-20T00:39:08;4.40;;;2.22;;
62679;SDS011;68213;40.528;44.712;2023-07-20T00:40:09;2.97;;;1.73;;
62679;SDS011;68213;40.528;44.712;2023-07-20T00:41:10;2.25;;;1.80;;
62679;SDS011;68213;40.528;44.712;2023-07-20T00:42:11;3.70;;;2.05;;
62679;SDS011;68213;40.528;44.712;2023-07-20T00:43:12;2.72;;;1.83;;
62679;SDS011;68213;40.528;44.712;2023-07-20T00:44:12;3.42;;;2.10;;
62679;SDS011;68213;40.528;44.712;2023-07-20T00:45:13;5.32;;;1.90;;
62679;SDS011;68213;40.528;44.712;2023-07-20T00:46:14;4.97;;;1.92;;
62679;SDS011;68213;40.528;44.712;2023-07-20T00:47:15;2.55;;;1.88;;
62679;SDS011;68213;40.528;44.712;2023-07-20T00:48:15;2.38;;;1.85;;
62679;SDS011;68213;40.528;44.712;2023-07-20T00:49:16;3.13;;;2.00;;
62679;SDS011;68213;40.528;44.712;2023-07-20T00:50:21;3.58;;;2.05;;
62679;SDS011;68213;40.528;44.712;2023-07-20T00:51:22;2.85;;;2.05;;
62679;SDS011;68213;40.528;44.712;2023-07-20T00:52:23;5.65;;;2.20;;
62679;SDS011;68213;40.528;44.712;2023-07-20T00:53:28;5.03;;;2.05;;
62679;SDS011;68213;40.528;44.712;2023-07-20T00:54:29;4.00;;;1.90;;
62679;SDS011;68213;40.528;44.712;2023-07-20T00:55:30;4.47;;;2.10;;
62679;SDS011;68213;40.528;44.712;2023-07-20T00:56:31;2.15;;;1.88;;
62679;SDS011;68213;40.528;44.712;2023-07-20T00:57:32;2.05;;;1.80;;
62679;SDS011;68213;40.528;44.712;2023-07-20T00:58:33;4.13;;;2.50;;
62679;SDS011;68213;40.528;44.712;2023-07-20T00:59:34;3.05;;;2.13;;
62679;SDS011;68213;40.528;44.712;2023-07-20T01:00:36;4.50;;;2.10;;
62679;SDS011;68213;40.528;44.712;2023-07-20T01:01:36;3.50;;;2.25;;
62679;SDS011;68213;40.528;44.712;2023-07-20T01:02:37;4.13;;;1.88;;
62679;SDS011;68213;40.528;44.712;2023-07-20T01:03:38;3.22;;;2.10;;
62679;SDS011;68213;40.528;44.712;2023-07-20T01:04:39;3.13;;;2.30;;
62679;SDS011;68213;40.528;44.712;2023-07-20T01:07:31;3.00;;;1.85;;
62679;SDS011;68213;40.528;44.712;2023-07-20T01:08:40;6.85;;;2.20;;
62679;SDS011;68213;40.528;44.712;2023-07-20T01:10:01;3.78;;;2.10;;
62679;SDS011;68213;40.528;44.712;2023-07-20T01:11:11;3.25;;;1.90;;
62679;SDS011;68213;40.528;44.712;2023-07-20T01:13:23;2.95;;;1.98;;
62679;SDS011;68213;40.528;44.712;2023-07-20T01:14:26;2.58;;;2.17;;
62679;SDS011;68213;40.528;44.712;2023-07-20T01:15:27;5.43;;;2.10;;
62679;SDS011;68213;40.528;44.712;2023-07-20T01:16:28;2.47;;;2.10;;
62679;SDS011;68213;40.528;44.712;2023-07-20T01:17:28;3.92;;;2.30;;
62679;SDS011;68213;40.528;44.712;2023-07-20T01:18:29;4.25;;;2.50;;
62679;SDS011;68213;40.528;44.712;2023-07-20T01:19:30;3.55;;;2.42;;
62679;SDS011;68213;40.528;44.712;2023-07-20T01:20:31;3.25;;;2.20;;
62679;SDS011;68213;40.528;44.712;2023-07-20T01:21:38;3.03;;;2.13;;
62679;SDS011;68213;40.528;44.712;2023-07-20T01:22:54;2.38;;;2.05;;
62679;SDS011;68213;40.528;44.712;2023-07-20T01:30:00;2.42;;;2.10;;
62679;SDS011;68213;40.528;44.712;2023-07-20T01:31:25;4.43;;;2.08;;
62679;SDS011;68213;40.528;44.712;2023-07-20T01:32:27;3.30;;;2.08;;
62679;SDS011;68213;40.528;44.712;2023-07-20T01:33:31;2.55;;;2.17;;
62679;SDS011;68213;40.528;44.712;2023-07-20T01:34:35;2.72;;;2.13;;
62679;SDS011;68213;40.528;44.712;2023-07-20T01:35:37;5.70;;;2.20;;
62679;SDS011;68213;40.528;44.712;2023-07-20T01:36:40;5.95;;;2.40;;
62679;SDS011;68213;40.528;44.712;2023-07-20T01:37:43;6.15;;;2.40;;
62679;SDS011;68213;40.528;44.712;2023-07-20T01:38:46;4.13;;;2.50;;
62679;SDS011;68213;40.528;44.712;2023-07-20T01:39:47;4.90;;;2.50;;
62679;SDS011;68213;40.528;44.712;2023-07-20T01:40:48;3.15;;;2.00;;
62679;SDS011;68213;40.528;44.712;2023-07-20T01:41:49;5.05;;;2.20;;
62679;SDS011;68213;40.528;44.712;2023-07-20T01:42:50;3.58;;;2.20;;
62679;SDS011;68213;40.528;44.712;2023-07-20T01:43:57;4.68;;;2.50;;
62679;SDS011;68213;40.528;44.712;2023-07-20T01:44:59;2.83;;;2.10;;
62679;SDS011;68213;40.528;44.712;2023-07-20T01:46:00;3.25;;;2.50;;
62679;SDS011;68213;40.528;44.712;2023-07-20T01:47:01;4.32;;;2.70;;
62679;SDS011;68213;40.528;44.712;2023-07-20T01:48:01;3.10;;;2.55;;
62679;SDS011;68213;40.528;44.712;2023-07-20T01:49:02;4.88;;;2.40;;
62679;SDS011;68213;40.528;44.712;2023-07-20T01:50:03;3.28;;;2.28;;
62679;SDS011;68213;40.528;44.712;2023-07-20T01:51:04;7.47;;;2.40;;
62679;SDS011;68213;40.528;44.712;2023-07-20T01:52:05;2.60;;;2.28;;
62679;SDS011;68213;40.528;44.712;2023-07-20T01:53:06;8.13;;;2.60;;
62679;SDS011;68213;40.528;44.712;2023-07-20T01:54:06;4.65;;;2.72;;
62679;SDS011;68213;40.528;44.712;2023-07-20T01:55:10;3.45;;;2.38;;
62679;SDS011;68213;40.528;44.712;2023-07-20T01:56:11;4.32;;;2.53;;
62679;SDS011;68213;40.528;44.712;2023-07-20T01:57:12;3.25;;;2.70;;
62679;SDS011;68213;40.528;44.712;2023-07-20T01:58:13;6.15;;;2.50;;
62679;SDS011;68213;40.528;44.712;2023-07-20T01:59:14;7.00;;;2.63;;
62679;SDS011;68213;40.528;44.712;2023-07-20T02:00:15;4.75;;;2.80;;
62679;SDS011;68213;40.528;44.712;2023-07-20T02:01:16;2.75;;;2.53;;
62679;SDS011;68213;40.528;44.712;2023-07-20T02:02:16;3.72;;;2.50;;
62679;SDS011;68213;40.528;44.712;2023-07-20T02:03:18;4.72;;;2.63;;
62679;SDS011;68213;40.528;44.712;2023-07-20T02:04:19;4.75;;;2.58;;
62679;SDS011;68213;40.528;44.712;2023-07-20T02:05:19;7.38;;;2.65;;
62679;SDS011;68213;40.528;44.712;2023-07-20T02:06:20;3.10;;;2.30;;
62679;SDS011;68213;40.528;44.712;2023-07-20T02:07:21;5.70;;;2.20;;
62679;SDS011;68213;40.528;44.712;2023-07-20T02:08:22;4.75;;;2.53;;
62679;SDS011;68213;40.528;44.712;2023-07-20T02:09:25;3.83;;;2.67;;
62679;SDS011;68213;40.528;44.712;2023-07-20T02:10:26;4.75;;;2.40;;
62679;SDS011;68213;40.528;44.712;2023-07-20T02:11:26;2.78;;;2.30;;
62679;SDS011;68213;40.528;44.712;2023-07-20T02:12:27;5.22;;;2.55;;
62679;SDS011;68213;40.528;44.712;2023-07-20T02:13:28;2.80;;;2.20;;
62679;SDS011;68213;40.528;44.712;2023-07-20T02:14:29;3.13;;;2.40;;
62679;SDS011;68213;40.528;44.712;2023-07-20T02:15:29;3.20;;;2.53;;
62679;SDS011;68213;40.528;44.712;2023-07-20T02:16:30;3.92;;;2.70;;
62679;SDS011;68213;40.528;44.712;2023-07-20T02:17:31;5.55;;;2.55;;
62679;SDS011;68213;40.528;44.712;2023-07-20T02:18:52;4.80;;;2.70;;
62679;SDS011;68213;40.528;44.712;2023-07-20T02:19:53;4.40;;;2.40;;
62679;SDS011;68213;40.528;44.712;2023-07-20T02:20:55;6.15;;;2.47;;
62679;SDS011;68213;40.528;44.712;2023-07-20T02:21:58;2.63;;;2.40;;
62679;SDS011;68213;40.528;44.712;2023-07-20T02:22:59;4.82;;;2.50;;
62679;SDS011;68213;40.528;44.712;2023-07-20T02:24:00;3.72;;;2.63;;
62679;SDS011;68213;40.528;44.712;2023-07-20T02:25:01;7.10;;;2.60;;
62679;SDS011;68213;40.528;44.712;2023-07-20T02:26:02;4.72;;;2.67;;
62679;SDS011;68213;40.528;44.712;2023-07-20T02:27:02;4.25;;;2.70;;
62679;SDS011;68213;40.528;44.712;2023-07-20T02:28:04;4.57;;;2.42;;
62679;SDS011;68213;40.528;44.712;2023-07-20T02:29:04;3.92;;;2.58;;
62679;SDS011;68213;40.528;44.712;2023-07-20T02:30:05;2.63;;;2.35;;
62679;SDS011;68213;40.528;44.712;2023-07-20T02:31:10;3.70;;;2.65;;
62679;SDS011;68213;40.528;44.712;2023-07-20T02:32:10;4.13;;;2.28;;
62679;SDS011;68213;40.528;44.712;2023-07-20T02:33:11;4.25;;;2.60;;
62679;SDS011;68213;40.528;44.712;2023-07-20T02:34:12;4.40;;;2.15;;
62679;SDS011;68213;40.528;44.712;2023-07-20T02:35:14;3.35;;;2.47;;
62679;SDS011;68213;40.528;44.712;2023-07-20T02:36:15;3.53;;;2.50;;
62679;SDS011;68213;40.528;44.712;2023-07-20T02:37:17;3.05;;;2.53;;
62679;SDS011;68213;40.528;44.712;2023-07-20T02:38:20;4.78;;;2.50;;
62679;SDS011;68213;40.528;44.712;2023-07-20T02:39:21;5.05;;;2.60;;
62679;SDS011;68213;40.528;44.712;2023-07-20T02:40:22;5.68;;;2.85;;
62679;SDS011;68213;40.528;44.712;2023-07-20T02:41:23;4.55;;;2.70;;
62679;SDS011;68213;40.528;44.712;2023-07-20T02:42:24;3.20;;;2.30;;
62679;SDS011;68213;40.528;44.712;2023-07-20T02:43:26;4.03;;;2.47;;
62679;SDS011;68213;40.528;44.712;2023-07-20T02:44:29;4.20;;;2.63;;
62679;SDS011;68213;40.528;44.712;2023-07-20T02:45:30;3.95;;;2.40;;
62679;SDS011;68213;40.528;44.712;2023-07-20T02:46:31;4.05;;;2.30;;
62679;SDS011;68213;40.528;44.712;2023-07-20T02:47:31;7.63;;;3.10;;
62679;SDS011;68213;40.528;44.712;2023-07-20T02:48:32;4.75;;;2.42;;
62679;SDS011;68213;40.528;44.712;2023-07-20T02:49:33;4.40;;;2.45;;
62679;SDS011;68213;40.528;44.712;2023-07-20T02:50:34;4.55;;;2.70;;
62679;SDS011;68213;40.528;44.712;2023-07-20T02:51:35;4.40;;;2.63;;
62679;SDS011;68213;40.528;44.712;2023-07-20T02:52:36;3.20;;;2.60;;
62679;SDS011;68213;40.528;44.712;2023-07-20T02:53:36;5.45;;;2.53;;
62679;SDS011;68213;40.528;44.712;2023-07-20T02:54:38;3.08;;;2.55;;
62679;SDS011;68213;40.528;44.712;2023-07-20T02:55:38;3.50;;;2.40;;
62679;SDS011;68213;40.528;44.712;2023-07-20T02:56:39;4.32;;;2.67;;
62679;SDS011;68213;40.528;44.712;2023-07-20T02:57:41;4.03;;;2.42;;
62679;SDS011;68213;40.528;44.712;2023-07-20T02:58:42;4.95;;;2.40;;
62679;SDS011;68213;40.528;44.712;2023-07-20T02:59:46;5.43;;;2.55;;
62679;SDS011;68213;40.528;44.712;2023-07-20T03:00:46;5.50;;;2.55;;
62679;SDS011;68213;40.528;44.712;2023-07-20T03:01:47;2.83;;;2.40;;
62679;SDS011;68213;40.528;44.712;2023-07-20T03:02:48;4.93;;;2.67;;
62679;SDS011;68213;40.528;44.712;2023-07-20T03:03:49;4.38;;;2.75;;
62679;SDS011;68213;40.528;44.712;2023-07-20T03:04:50;7.10;;;2.65;;
62679;SDS011;68213;40.528;44.712;2023-07-20T03:05:50;3.42;;;2.55;;
62679;SDS011;68213;40.528;44.712;2023-07-20T03:06:54;8.48;;;2.53;;
62679;SDS011;68213;40.528;44.712;2023-07-20T03:07:55;2.65;;;2.30;;
62679;SDS011;68213;40.528;44.712;2023-07-20T03:08:56;3.50;;;2.63;;
62679;SDS011;68213;40.528;44.712;2023-07-20T03:09:58;3.88;;;2.08;;
62679;SDS011;68213;40.528;44.712;2023-07-20T03:10:59;3.75;;;2.30;;
62679;SDS011;68213;40.528;44.712;2023-07-20T03:11:59;2.58;;;2.38;;
62679;SDS011;68213;40.528;44.712;2023-07-20T03:13:01;5.70;;;2.28;;
62679;SDS011;68213;40.528;44.712;2023-07-20T03:14:02;3.40;;;2.70;;
62679;SDS011;68213;40.528;44.712;2023-07-20T03:15:02;5.93;;;2.88;;
62679;SDS011;68213;40.528;44.712;2023-07-20T03:16:04;4.47;;;2.40;;
62679;SDS011;68213;40.528;44.712;2023-07-20T03:17:04;3.95;;;2.45;;
62679;SDS011;68213;40.528;44.712;2023-07-20T03:18:08;2.83;;;2.30;;
62679;SDS011;68213;40.528;44.712;2023-07-20T03:19:09;4.38;;;2.30;;
62679;SDS011;68213;40.528;44.712;2023-07-20T03:20:10;5.70;;;2.42;;
62679;SDS011;68213;40.528;44.712;2023-07-20T03:21:13;3.72;;;2.20;;
62679;SDS011;68213;40.528;44.712;2023-07-20T03:22:13;4.60;;;2.28;;
62679;SDS011;68213;40.528;44.712;2023-07-20T03:23:14;3.90;;;2.20;;
62679;SDS011;68213;40.528;44.712;2023-07-20T03:24:16;3.75;;;2.45;;
62679;SDS011;68213;40.528;44.712;2023-07-20T03:25:16;4.30;;;2.63;;
62679;SDS011;68213;40.528;44.712;2023-07-20T03:26:17;4.90;;;2.80;;
62679;SDS011;68213;40.528;44.712;2023-07-20T03:27:18;4.68;;;2.53;;
62679;SDS011;68213;40.528;44.712;2023-07-20T03:28:19;4.15;;;2.20;;
62679;SDS011;68213;40.528;44.712;2023-07-20T03:29:19;3.25;;;2.47;;
62679;SDS011;68213;40.528;44.712;2023-07-20T03:30:20;5.40;;;2.65;;
62679;SDS011;68213;40.528;44.712;2023-07-20T03:31:21;4.57;;;2.33;;
62679;SDS011;68213;40.528;44.712;2023-07-20T03:32:22;4.72;;;2.17;;
62679;SDS011;68213;40.528;44.712;2023-07-20T03:33:26;6.13;;;2.53;;
62679;SDS011;68213;40.528;44.712;2023-07-20T03:34:28;3.05;;;2.47;;
62679;SDS011;68213;40.528;44.712;2023-07-20T03:35:28;6.57;;;2.83;;
62679;SDS011;68213;40.528;44.712;2023-07-20T03:36:30;3.80;;;2.40;;
62679;SDS011;68213;40.528;44.712;2023-07-20T03:37:31;8.57;;;2.90;;
62679;SDS011;68213;40.528;44.712;2023-07-20T03:38:32;10.07;;;3.00;;
62679;SDS011;68213;40.528;44.712;2023-07-20T03:39:33;6.15;;;2.90;;
62679;SDS011;68213;40.528;44.712;2023-07-20T03:40:33;4.35;;;2.45;;
62679;SDS011;68213;40.528;44.712;2023-07-20T03:41:34;4.25;;;2.20;;
62679;SDS011;68213;40.528;44.712;2023-07-20T03:42:35;5.55;;;2.90;;
62679;SDS011;68213;40.528;44.712;2023-07-20T03:43:36;5.25;;;2.90;;
62679;SDS011;68213;40.528;44.712;2023-07-20T03:44:37;3.58;;;2.55;;
62679;SDS011;68213;40.528;44.712;2023-07-20T03:45:38;5.50;;;2.47;;
62679;SDS011;68213;40.528;44.712;2023-07-20T03:46:38;5.28;;;2.67;;
62679;SDS011;68213;40.528;44.712;2023-07-20T03:47:39;5.60;;;2.85;;
62679;SDS011;68213;40.528;44.712;2023-07-20T03:48:40;10.77;;;2.63;;
62679;SDS011;68213;40.528;44.712;2023-07-20T03:49:40;3.50;;;2.67;;
62679;SDS011;68213;40.528;44.712;2023-07-20T03:50:41;4.10;;;2.63;;
62679;SDS011;68213;40.528;44.712;2023-07-20T03:51:44;5.32;;;2.70;;
62679;SDS011;68213;40.528;44.712;2023-07-20T03:52:44;4.03;;;2.92;;
62679;SDS011;68213;40.528;44.712;2023-07-20T03:53:45;9.90;;;2.88;;
62679;SDS011;68213;40.528;44.712;2023-07-20T03:54:46;5.35;;;2.72;;
62679;SDS011;68213;40.528;44.712;2023-07-20T03:55:47;4.28;;;2.72;;
62679;SDS011;68213;40.528;44.712;2023-07-20T03:56:52;8.00;;;2.97;;
62679;SDS011;68213;40.528;44.712;2023-07-20T03:57:53;7.45;;;3.00;;
62679;SDS011;68213;40.528;44.712;2023-07-20T03:58:54;3.83;;;2.78;;
62679;SDS011;68213;40.528;44.712;2023-07-20T03:59:55;4.97;;;2.70;;
62679;SDS011;68213;40.528;44.712;2023-07-20T04:00:56;7.40;;;2.90;;
62679;SDS011;68213;40.528;44.712;2023-07-20T04:01:58;8.98;;;2.80;;
62679;SDS011;68213;40.528;44.712;2023-07-20T04:02:58;4.85;;;2.60;;
62679;SDS011;68213;40.528;44.712;2023-07-20T04:03:59;6.78;;;2.97;;
62679;SDS011;68213;40.528;44.712;2023-07-20T04:05:00;7.43;;;2.80;;
62679;SDS011;68213;40.528;44.712;2023-07-20T04:06:00;4.82;;;2.97;;
62679;SDS011;68213;40.528;44.712;2023-07-20T04:07:01;5.63;;;2.97;;
62679;SDS011;68213;40.528;44.712;2023-07-20T04:08:02;6.10;;;2.60;;
62679;SDS011;68213;40.528;44.712;2023-07-20T04:09:03;6.22;;;2.80;;
62679;SDS011;68213;40.528;44.712;2023-07-20T04:10:05;3.72;;;2.38;;
62679;SDS011;68213;40.528;44.712;2023-07-20T04:11:06;4.10;;;2.72;;
62679;SDS011;68213;40.528;44.712;2023-07-20T04:12:07;4.07;;;2.53;;
62679;SDS011;68213;40.528;44.712;2023-07-20T04:13:08;5.45;;;2.95;;
62679;SDS011;68213;40.528;44.712;2023-07-20T04:14:09;9.00;;;2.95;;
62679;SDS011;68213;40.528;44.712;2023-07-20T04:15:09;5.35;;;2.97;;
62679;SDS011;68213;40.528;44.712;2023-07-20T04:16:13;6.68;;;2.50;;
62679;SDS011;68213;40.528;44.712;2023-07-20T04:17:13;5.10;;;2.67;;
62679;SDS011;68213;40.528;44.712;2023-07-20T04:18:14;7.65;;;2.92;;
62679;SDS011;68213;40.528;44.712;2023-07-20T04:19:15;3.92;;;2.80;;
62679;SDS011;68213;40.528;44.712;2023-07-20T04:20:18;7.25;;;2.88;;
62679;SDS011;68213;40.528;44.712;2023-07-20T04:21:18;13.70;;;3.05;;
62679;SDS011;68213;40.528;44.712;2023-07-20T04:22:19;9.60;;;3.22;;
62679;SDS011;68213;40.528;44.712;2023-07-20T04:23:20;4.80;;;2.83;;
62679;SDS011;68213;40.528;44.712;2023-07-20T04:24:21;6.13;;;2.80;;
62679;SDS011;68213;40.528;44.712;2023-07-20T04:25:22;6.72;;;2.90;;
62679;SDS011;68213;40.528;44.712;2023-07-20T04:26:22;6.30;;;3.10;;
62679;SDS011;68213;40.528;44.712;2023-07-20T04:27:23;4.32;;;2.97;;
62679;SDS011;68213;40.528;44.712;2023-07-20T04:28:24;5.32;;;3.20;;
62679;SDS011;68213;40.528;44.712;2023-07-20T04:29:24;3.58;;;2.72;;
62679;SDS011;68213;40.528;44.712;2023-07-20T04:30:25;5.97;;;2.88;;
62679;SDS011;68213;40.528;44.712;2023-07-20T04:31:26;6.35;;;2.72;;
62679;SDS011;68213;40.528;44.712;2023-07-20T04:32:27;5.38;;;3.10;;
62679;SDS011;68213;40.528;44.712;2023-07-20T04:33:27;4.75;;;2.97;;
62679;SDS011;68213;40.528;44.712;2023-07-20T04:34:29;5.97;;;3.25;;
62679;SDS011;68213;40.528;44.712;2023-07-20T04:36:57;6.30;;;2.75;;
62679;SDS011;68213;40.528;44.712;2023-07-20T04:37:58;4.47;;;2.90;;
62679;SDS011;68213;40.528;44.712;2023-07-20T04:38:59;8.90;;;2.65;;
62679;SDS011;68213;40.528;44.712;2023-07-20T04:39:59;7.38;;;2.80;;
62679;SDS011;68213;40.528;44.712;2023-07-20T04:41:00;4.38;;;3.30;;
62679;SDS011;68213;40.528;44.712;2023-07-20T04:42:01;7.65;;;3.17;;
62679;SDS011;68213;40.528;44.712;2023-07-20T04:43:02;7.57;;;3.45;;
62679;SDS011;68213;40.528;44.712;2023-07-20T04:44:03;5.20;;;2.75;;
62679;SDS011;68213;40.528;44.712;2023-07-20T04:45:04;5.03;;;3.35;;
62679;SDS011;68213;40.528;44.712;2023-07-20T04:46:05;5.40;;;3.03;;
62679;SDS011;68213;40.528;44.712;2023-07-20T04:47:06;5.72;;;2.97;;
62679;SDS011;68213;40.528;44.712;2023-07-20T04:48:12;4.68;;;2.80;;
62679;SDS011;68213;40.528;44.712;2023-07-20T04:49:14;6.72;;;2.67;;
62679;SDS011;68213;40.528;44.712;2023-07-20T04:50:15;7.07;;;2.80;;
62679;SDS011;68213;40.528;44.712;2023-07-20T04:51:16;10.55;;;3.50;;
62679;SDS011;68213;40.528;44.712;2023-07-20T04:52:20;5.97;;;2.90;;
62679;SDS011;68213;40.528;44.712;2023-07-20T04:53:21;4.93;;;3.15;;
62679;SDS011;68213;40.528;44.712;2023-07-20T04:54:23;8.93;;;3.13;;
62679;SDS011;68213;40.528;44.712;2023-07-20T04:55:27;8.65;;;3.20;;
62679;SDS011;68213;40.528;44.712;2023-07-20T04:56:28;8.40;;;3.22;;
62679;SDS011;68213;40.528;44.712;2023-07-20T04:57:29;6.75;;;3.00;;
62679;SDS011;68213;40.528;44.712;2023-07-20T04:58:30;8.98;;;2.90;;
62679;SDS011;68213;40.528;44.712;2023-07-20T04:59:30;4.40;;;2.80;;
62679;SDS011;68213;40.528;44.712;2023-07-20T05:00:33;8.32;;;3.17;;
62679;SDS011;68213;40.528;44.712;2023-07-20T05:01:37;5.65;;;3.22;;
62679;SDS011;68213;40.528;44.712;2023-07-20T05:02:38;6.40;;;2.75;;
62679;SDS011;68213;40.528;44.712;2023-07-20T05:03:39;9.75;;;3.20;;
62679;SDS011;68213;40.528;44.712;2023-07-20T05:04:40;4.07;;;3.33;;
62679;SDS011;68213;40.528;44.712;2023-07-20T05:05:40;5.40;;;2.80;;
62679;SDS011;68213;40.528;44.712;2023-07-20T05:06:41;5.57;;;3.08;;
62679;SDS011;68213;40.528;44.712;2023-07-20T05:07:42;6.90;;;3.20;;
62679;SDS011;68213;40.528;44.712;2023-07-20T05:08:43;5.18;;;2.90;;
62679;SDS011;68213;40.528;44.712;2023-07-20T05:09:43;11.57;;;3.45;;
62679;SDS011;68213;40.528;44.712;2023-07-20T05:10:44;8.57;;;3.05;;
62679;SDS011;68213;40.528;44.712;2023-07-20T05:11:45;5.93;;;3.10;;
62679;SDS011;68213;40.528;44.712;2023-07-20T05:12:48;12.18;;;3.30;;
62679;SDS011;68213;40.528;44.712;2023-07-20T05:13:48;7.57;;;3.13;;
62679;SDS011;68213;40.528;44.712;2023-07-20T05:14:49;6.72;;;3.03;;
62679;SDS011;68213;40.528;44.712;2023-07-20T05:15:53;4.72;;;3.05;;
62679;SDS011;68213;40.528;44.712;2023-07-20T05:16:54;4.65;;;2.88;;
62679;SDS011;68213;40.528;44.712;2023-07-20T05:17:55;5.78;;;3.10;;
62679;SDS011;68213;40.528;44.712;2023-07-20T05:18:56;4.88;;;3.22;;
62679;SDS011;68213;40.528;44.712;2023-07-20T05:19:57;4.20;;;3.13;;
62679;SDS011;68213;40.528;44.712;2023-07-20T05:20:58;7.13;;;3.55;;
62679;SDS011;68213;40.528;44.712;2023-07-20T05:21:59;7.63;;;3.40;;
62679;SDS011;68213;40.528;44.712;2023-07-20T05:23:00;6.05;;;3.15;;
62679;SDS011;68213;40.528;44.712;2023-07-20T05:24:01;8.82;;;4.63;;
62679;SDS011;68213;40.528;44.712;2023-07-20T05:25:02;10.55;;;3.50;;
62679;SDS011;68213;40.528;44.712;2023-07-20T05:26:03;10.02;;;3.15;;
62679;SDS011;68213;40.528;44.712;2023-07-20T05:27:07;8.13;;;3.58;;
62679;SDS011;68213;40.528;44.712;2023-07-20T05:28:08;4.85;;;3.33;;
62679;SDS011;68213;40.528;44.712;2023-07-20T05:29:09;6.47;;;3.58;;
62679;SDS011;68213;40.528;44.712;2023-07-20T05:30:09;7.40;;;3.25;;
62679;SDS011;68213;40.528;44.712;2023-07-20T05:31:10;3.95;;;3.33;;
62679;SDS011;68213;40.528;44.712;2023-07-20T05:32:12;5.57;;;3.45;;
62679;SDS011;68213;40.528;44.712;2023-07-20T05:33:13;9.40;;;3.72;;
62679;SDS011;68213;40.528;44.712;2023-07-20T05:34:14;7.18;;;3.47;;
62679;SDS011;68213;40.528;44.712;2023-07-20T05:35:14;5.85;;;3.58;;
62679;SDS011;68213;40.528;44.712;2023-07-20T05:36:17;4.65;;;3.30;;
62679;SDS011;68213;40.528;44.712;2023-07-20T05:37:17;5.47;;;3.63;;
62679;SDS011;68213;40.528;44.712;2023-07-20T05:38:21;9.20;;;3.70;;
62679;SDS011;68213;40.528;44.712;2023-07-20T05:39:22;6.25;;;3.67;;
62679;SDS011;68213;40.528;44.712;2023-07-20T05:40:23;10.32;;;3.50;;
62679;SDS011;68213;40.528;44.712;2023-07-20T05:41:24;7.70;;;3.78;;
62679;SDS011;68213;40.528;44.712;2023-07-20T05:42:24;8.15;;;3.83;;
62679;SDS011;68213;40.528;44.712;2023-07-20T05:43:25;5.82;;;3.50;;
62679;SDS011;68213;40.528;44.712;2023-07-20T05:44:26;6.45;;;3.72;;
62679;SDS011;68213;40.528;44.712;2023-07-20T05:45:26;11.35;;;3.47;;
62679;SDS011;68213;40.528;44.712;2023-07-20T05:46:28;6.38;;;3.60;;
62679;SDS011;68213;40.528;44.712;2023-07-20T05:47:28;9.23;;;4.20;;
62679;SDS011;68213;40.528;44.712;2023-07-20T05:48:29;8.65;;;4.00;;
62679;SDS011;68213;40.528;44.712;2023-07-20T05:49:30;7.70;;;3.50;;
62679;SDS011;68213;40.528;44.712;2023-07-20T05:50:30;6.90;;;3.50;;
62679;SDS011;68213;40.528;44.712;2023-07-20T05:51:31;8.90;;;3.58;;
62679;SDS011;68213;40.528;44.712;2023-07-20T05:52:32;5.43;;;3.42;;
62679;SDS011;68213;40.528;44.712;2023-07-20T05:53:34;9.77;;;3.70;;
62679;SDS011;68213;40.528;44.712;2023-07-20T05:54:36;10.50;;;3.97;;
62679;SDS011;68213;40.528;44.712;2023-07-20T05:55:36;7.47;;;3.50;;
62679;SDS011;68213;40.528;44.712;2023-07-20T05:56:38;10.65;;;3.50;;
62679;SDS011;68213;40.528;44.712;2023-07-20T05:57:42;10.75;;;4.00;;
62679;SDS011;68213;40.528;44.712;2023-07-20T05:58:46;9.50;;;3.72;;
62679;SDS011;68213;40.528;44.712;2023-07-20T05:59:47;6.50;;;3.70;;
62679;SDS011;68213;40.528;44.712;2023-07-20T06:00:48;13.90;;;4.53;;
62679;SDS011;68213;40.528;44.712;2023-07-20T06:01:49;13.63;;;3.90;;
62679;SDS011;68213;40.528;44.712;2023-07-20T06:02:50;6.30;;;3.40;;
62679;SDS011;68213;40.528;44.712;2023-07-20T06:03:52;7.43;;;3.28;;
62679;SDS011;68213;40.528;44.712;2023-07-20T06:04:53;8.13;;;3.58;;
62679;SDS011;68213;40.528;44.712;2023-07-20T06:05:58;7.82;;;3.78;;
62679;SDS011;68213;40.528;44.712;2023-07-20T06:07:00;8.02;;;4.10;;
62679;SDS011;68213;40.528;44.712;2023-07-20T06:08:01;6.30;;;3.90;;
62679;SDS011;68213;40.528;44.712;2023-07-20T06:09:02;10.32;;;3.45;;
62679;SDS011;68213;40.528;44.712;2023-07-20T06:10:09;8.73;;;4.32;;
62679;SDS011;68213;40.528;44.712;2023-07-20T06:11:10;7.28;;;3.33;;
62679;SDS011;68213;40.528;44.712;2023-07-20T06:12:12;7.65;;;4.05;;
62679;SDS011;68213;40.528;44.712;2023-07-20T06:13:15;11.68;;;3.70;;
62679;SDS011;68213;40.528;44.712;2023-07-20T06:14:16;10.70;;;4.28;;
62679;SDS011;68213;40.528;44.712;2023-07-20T06:16:26;4.97;;;3.85;;